createdAt,value
2016-05-06T00:00:11.523Z,0
2016-05-06T00:01:11.353Z,0
2016-05-06T00:02:11.652Z,0
2016-05-06T00:03:11.484Z,0
2016-05-06T00:04:11.628Z,0
2016-05-06T00:05:11.614Z,0
2016-05-06T00:06:11.600Z,0
2016-05-06T00:07:11.447Z,0
2016-05-06T00:08:11.262Z,0
2016-05-06T00:09:11.594Z,0
2016-05-06T00:10:11.408Z,0
2016-05-06T00:11:11.552Z,0
2016-05-06T00:12:11.366Z,0
2016-05-06T00:13:11.511Z,0
2016-05-06T00:14:11.497Z,0
2016-05-06T00:15:11.313Z,0
2016-05-06T00:16:11.471Z,0
2016-05-06T00:17:11.474Z,0
2016-05-06T00:18:11.461Z,0
2016-05-06T00:19:11.277Z,0
2016-05-06T00:20:11.420Z,0
2016-05-06T00:21:11.259Z,0
2016-05-06T00:22:11.388Z,0
2016-05-06T00:23:11.218Z,0
2016-05-06T00:24:11.361Z,0
2016-05-06T00:25:11.192Z,0
2016-05-06T00:26:10.898Z,0
2016-05-06T00:27:11.166Z,0
2016-05-06T00:28:11.341Z,0
2016-05-06T00:29:11.156Z,0
2016-05-06T00:30:11.143Z,0
2016-05-06T00:31:11.302Z,0
2016-05-06T00:32:11.273Z,0
2016-05-06T00:33:11.479Z,0
2016-05-06T00:34:11.248Z,0
2016-05-06T00:35:11.250Z,0
2016-05-06T00:36:11.207Z,0
2016-05-06T00:37:11.037Z,0
2016-05-06T00:38:11.211Z,0
2016-05-06T00:39:11.198Z,0
2016-05-06T00:40:11.389Z,0
2016-05-06T00:41:11.000Z,0
2016-05-06T00:42:11.128Z,0
2016-05-06T00:43:11.131Z,0
2016-05-06T00:44:10.994Z,0
2016-05-06T00:45:10.792Z,0
2016-05-06T00:46:10.920Z,0
2016-05-06T00:47:10.907Z,0
2016-05-06T00:48:10.894Z,0
2016-05-06T00:49:11.038Z,0
2016-05-06T00:50:10.713Z,0
2016-05-06T00:51:10.996Z,0
2016-05-06T00:52:10.999Z,0
2016-05-06T00:53:10.846Z,0
2016-05-06T00:54:10.833Z,0
2016-05-06T00:55:10.960Z,0
2016-05-06T00:56:11.010Z,0
2016-05-06T00:57:10.935Z,0
2016-05-06T00:58:10.765Z,0
2016-05-06T00:59:10.924Z,0
2016-05-06T01:00:10.754Z,0
2016-05-06T01:01:10.868Z,0
2016-05-06T01:02:10.698Z,0
2016-05-06T01:03:10.716Z,0
2016-05-06T01:04:10.703Z,0
2016-05-06T01:05:10.831Z,0
2016-05-06T01:06:10.849Z,0
2016-05-06T01:07:10.493Z,0
2016-05-06T01:08:10.776Z,0
2016-05-06T01:09:10.467Z,0
2016-05-06T01:10:10.610Z,0
2016-05-06T01:11:10.581Z,0
2016-05-06T01:12:10.725Z,0
2016-05-06T01:13:10.727Z,0
2016-05-06T01:14:10.715Z,0
2016-05-06T01:15:10.686Z,0
2016-05-06T01:16:10.533Z,0
2016-05-06T01:17:10.660Z,0
2016-05-06T01:18:10.335Z,0
2016-05-06T01:19:10.650Z,0
2016-05-06T01:20:10.637Z,0
2016-05-06T01:21:10.296Z,0
2016-05-06T01:22:10.626Z,0
2016-05-06T01:23:10.583Z,0
2016-05-06T01:24:10.413Z,0
2016-05-06T01:25:10.557Z,0
2016-05-06T01:26:11.027Z,0
2016-05-06T01:27:10.531Z,0
2016-05-06T01:28:10.518Z,0
2016-05-06T01:29:10.505Z,0
2016-05-06T01:30:10.335Z,0
2016-05-06T01:31:10.495Z,0
2016-05-06T01:32:10.513Z,0
2016-05-06T01:33:10.484Z,0
2016-05-06T01:34:10.268Z,0
2016-05-06T01:35:10.255Z,0
2016-05-06T01:36:10.446Z,0
2016-05-06T01:37:10.401Z,0
2016-05-06T01:38:10.372Z,0
2016-05-06T01:39:10.359Z,0
2016-05-06T01:40:10.379Z,0
2016-05-06T01:41:10.365Z,0
2016-05-06T01:42:10.164Z,0
2016-05-06T01:43:10.309Z,0
2016-05-06T01:44:10.311Z,0
2016-05-06T01:45:10.283Z,0
2016-05-06T01:46:10.269Z,0
2016-05-06T01:47:10.256Z,0
2016-05-06T01:48:10.103Z,0
2016-05-06T01:49:09.934Z,0
2016-05-06T01:50:10.061Z,0
2016-05-06T01:51:10.204Z,0
2016-05-06T01:52:10.052Z,0
2016-05-06T01:53:09.883Z,0
2016-05-06T01:54:10.010Z,0
2016-05-06T01:55:10.152Z,0
2016-05-06T01:56:10.156Z,0
2016-05-06T01:57:09.971Z,0
2016-05-06T01:58:10.114Z,0
2016-05-06T01:59:09.788Z,0
2016-05-06T02:00:09.932Z,0
2016-05-06T02:01:09.919Z,0
2016-05-06T02:02:10.062Z,0
2016-05-06T02:03:10.049Z,0
2016-05-06T02:04:10.036Z,0
2016-05-06T02:05:10.024Z,0
2016-05-06T02:06:09.854Z,0
2016-05-06T02:07:10.060Z,0
2016-05-06T02:08:09.984Z,0
2016-05-06T02:09:09.815Z,0
2016-05-06T02:10:09.787Z,0
2016-05-06T02:11:10.070Z,0
2016-05-06T02:12:09.948Z,0
2016-05-06T02:13:09.920Z,0
2016-05-06T02:14:09.454Z,0
2016-05-06T02:15:09.878Z,0
2016-05-06T02:16:09.709Z,0
2016-05-06T02:17:09.853Z,0
2016-05-06T02:18:09.872Z,0
2016-05-06T02:19:09.827Z,0
2016-05-06T02:20:09.814Z,0
2016-05-06T02:21:09.801Z,0
2016-05-06T02:22:09.772Z,0
2016-05-06T02:23:10.103Z,0
2016-05-06T02:24:09.750Z,0
2016-05-06T02:25:09.753Z,0
2016-05-06T02:26:09.818Z,0
2016-05-06T02:27:09.556Z,0
2016-05-06T02:28:09.542Z,0
2016-05-06T02:29:09.686Z,0
2016-05-06T02:30:09.672Z,0
2016-05-06T02:31:09.379Z,0
2016-05-06T02:32:09.647Z,0
2016-05-06T02:33:09.680Z,0
2016-05-06T02:34:09.480Z,0
2016-05-06T02:35:09.608Z,0
2016-05-06T02:36:09.595Z,0
2016-05-06T02:37:09.597Z,0
2016-05-06T02:38:09.414Z,0
2016-05-06T02:39:09.556Z,0
2016-05-06T02:40:09.388Z,0
2016-05-06T02:41:09.608Z,0
2016-05-06T02:42:09.360Z,0
2016-05-06T02:43:09.332Z,0
2016-05-06T02:44:09.492Z,0
2016-05-06T02:45:09.479Z,0
2016-05-06T02:46:09.449Z,0
2016-05-06T02:47:09.282Z,0
2016-05-06T02:48:09.440Z,0
2016-05-06T02:49:09.426Z,0
2016-05-06T02:50:09.414Z,0
2016-05-06T02:51:09.246Z,0
2016-05-06T02:52:09.607Z,0
2016-05-06T02:53:09.359Z,0
2016-05-06T02:54:09.347Z,0
2016-05-06T02:55:09.333Z,0
2016-05-06T02:56:08.946Z,0
2016-05-06T02:57:09.167Z,0
2016-05-06T02:58:09.295Z,0
2016-05-06T02:59:09.282Z,0
2016-05-06T03:00:09.270Z,0
2016-05-06T03:01:09.256Z,0
2016-05-06T03:02:09.227Z,0
2016-05-06T03:03:08.918Z,0
2016-05-06T03:04:09.045Z,0
2016-05-06T03:05:08.892Z,0
2016-05-06T03:06:08.863Z,0
2016-05-06T03:07:09.038Z,0
2016-05-06T03:08:09.150Z,0
2016-05-06T03:09:09.121Z,0
2016-05-06T03:10:09.124Z,0
2016-05-06T03:11:08.830Z,0
2016-05-06T03:12:08.958Z,0
2016-05-06T03:13:08.929Z,0
2016-05-06T03:14:08.838Z,0
2016-05-06T03:15:09.059Z,0
2016-05-06T03:16:09.047Z,0
2016-05-06T03:17:09.049Z,0
2016-05-06T03:18:08.849Z,0
2016-05-06T03:19:08.835Z,0
2016-05-06T03:20:08.979Z,0
2016-05-06T03:21:08.857Z,0
2016-05-06T03:22:08.953Z,0
2016-05-06T03:23:08.784Z,0
2016-05-06T03:24:08.912Z,0
2016-05-06T03:25:08.915Z,0
2016-05-06T03:26:08.886Z,0
2016-05-06T03:27:08.889Z,0
2016-05-06T03:28:08.876Z,0
2016-05-06T03:29:08.862Z,0
2016-05-06T03:30:08.678Z,0
2016-05-06T03:31:08.665Z,0
2016-05-06T03:32:08.823Z,0
2016-05-06T03:33:08.655Z,0
2016-05-06T03:34:08.798Z,0
2016-05-06T03:35:08.785Z,0
2016-05-06T03:36:08.616Z,0
2016-05-06T03:37:08.744Z,0
2016-05-06T03:38:08.731Z,0
2016-05-06T03:39:08.561Z,0
2016-05-06T03:40:08.564Z,0
2016-05-06T03:41:09.874Z,0
2016-05-06T03:42:08.672Z,0
2016-05-06T03:43:08.659Z,0
2016-05-06T03:44:08.695Z,0
2016-05-06T03:45:08.650Z,0
2016-05-06T03:46:08.294Z,0
2016-05-06T03:47:08.610Z,0
2016-05-06T03:48:08.269Z,0
2016-05-06T03:49:08.474Z,0
2016-05-06T03:50:08.414Z,0
2016-05-06T03:51:08.401Z,0
2016-05-06T03:52:08.732Z,0
2016-05-06T03:53:08.344Z,5
2016-05-06T03:54:08.487Z,5
2016-05-06T03:55:08.491Z,5
2016-05-06T03:56:08.602Z,5
2016-05-06T03:57:08.293Z,5
2016-05-06T03:58:08.451Z,5
2016-05-06T03:59:08.267Z,5
2016-05-06T04:00:08.254Z,5
2016-05-06T04:01:08.241Z,5
2016-05-06T04:02:08.212Z,5
2016-05-06T04:03:08.355Z,5
2016-05-06T04:04:08.343Z,10
2016-05-06T04:05:08.173Z,10
2016-05-06T04:06:08.003Z,10
2016-05-06T04:07:08.304Z,10
2016-05-06T04:08:08.292Z,10
2016-05-06T04:09:08.122Z,10
2016-05-06T04:10:08.264Z,10
2016-05-06T04:11:08.393Z,10
2016-05-06T04:12:08.082Z,10
2016-05-06T04:13:08.086Z,15
2016-05-06T04:14:08.197Z,15
2016-05-06T04:15:08.028Z,15
2016-05-06T04:16:08.031Z,15
2016-05-06T04:17:08.158Z,15
2016-05-06T04:18:08.146Z,15
2016-05-06T04:19:07.976Z,15
2016-05-06T04:20:07.980Z,15
2016-05-06T04:21:08.107Z,15
2016-05-06T04:22:07.954Z,20
2016-05-06T04:23:08.081Z,20
2016-05-06T04:24:08.052Z,20
2016-05-06T04:25:07.899Z,20
2016-05-06T04:26:07.885Z,20
2016-05-06T04:27:08.045Z,20
2016-05-06T04:28:08.001Z,25
2016-05-06T04:29:07.832Z,25
2016-05-06T04:30:07.959Z,25
2016-05-06T04:31:07.962Z,25
2016-05-06T04:32:07.934Z,25
2016-05-06T04:33:08.124Z,25
2016-05-06T04:34:07.767Z,25
2016-05-06T04:35:07.895Z,25
2016-05-06T04:36:07.726Z,25
2016-05-06T04:37:07.712Z,25
2016-05-06T04:38:07.856Z,25
2016-05-06T04:39:07.842Z,30
2016-05-06T04:40:07.814Z,30
2016-05-06T04:41:08.192Z,30
2016-05-06T04:42:07.804Z,30
2016-05-06T04:43:07.635Z,30
2016-05-06T04:44:07.763Z,30
2016-05-06T04:45:07.797Z,30
2016-05-06T04:46:07.752Z,35
2016-05-06T04:47:07.739Z,35
2016-05-06T04:48:07.555Z,35
2016-05-06T04:49:07.698Z,35
2016-05-06T04:50:07.669Z,35
2016-05-06T04:51:07.688Z,35
2016-05-06T04:52:07.643Z,40
2016-05-06T04:53:07.490Z,40
2016-05-06T04:54:07.618Z,40
2016-05-06T04:55:07.621Z,40
2016-05-06T04:56:07.857Z,40
2016-05-06T04:57:07.579Z,40
2016-05-06T04:58:07.426Z,45
2016-05-06T04:59:07.568Z,45
2016-05-06T05:00:07.368Z,45
2016-05-06T05:01:07.526Z,45
2016-05-06T05:02:07.515Z,45
2016-05-06T05:03:07.501Z,50
2016-05-06T05:04:07.519Z,50
2016-05-06T05:05:07.476Z,50
2016-05-06T05:06:07.150Z,50
2016-05-06T05:07:07.450Z,50
2016-05-06T05:08:07.264Z,50
2016-05-06T05:09:07.252Z,50
2016-05-06T05:10:07.395Z,50
2016-05-06T05:11:07.265Z,50
2016-05-06T05:12:07.439Z,50
2016-05-06T05:13:07.333Z,50
2016-05-06T05:14:07.336Z,50
2016-05-06T05:15:07.542Z,50
2016-05-06T05:16:07.561Z,50
2016-05-06T05:17:07.566Z,55
2016-05-06T05:18:07.554Z,55
2016-05-06T05:19:07.573Z,55
2016-05-06T05:20:07.561Z,55
2016-05-06T05:21:07.561Z,60
2016-05-06T05:22:07.554Z,60
2016-05-06T05:23:07.594Z,60
2016-05-06T05:24:07.383Z,65
2016-05-06T05:25:07.518Z,65
2016-05-06T05:26:08.321Z,65
2016-05-06T05:27:07.374Z,65
2016-05-06T05:28:07.331Z,65
2016-05-06T05:29:07.494Z,65
2016-05-06T05:30:07.310Z,70
2016-05-06T05:31:07.470Z,70
2016-05-06T05:32:07.443Z,70
2016-05-06T05:33:07.274Z,70
2016-05-06T05:34:07.263Z,70
2016-05-06T05:35:07.406Z,70
2016-05-06T05:36:07.395Z,70
2016-05-06T05:37:07.381Z,70
2016-05-06T05:38:07.213Z,70
2016-05-06T05:39:07.357Z,70
2016-05-06T05:40:07.188Z,70
2016-05-06T05:41:07.456Z,75
2016-05-06T05:42:07.334Z,75
2016-05-06T05:43:07.321Z,75
2016-05-06T05:44:07.277Z,75
2016-05-06T05:45:07.264Z,75
2016-05-06T05:46:07.266Z,75
2016-05-06T05:47:07.097Z,75
2016-05-06T05:48:07.241Z,75
2016-05-06T05:49:07.213Z,75
2016-05-06T05:50:07.199Z,75
2016-05-06T05:51:06.733Z,80
2016-05-06T05:52:07.157Z,80
2016-05-06T05:53:07.004Z,80
2016-05-06T05:54:07.163Z,80
2016-05-06T05:55:07.135Z,80
2016-05-06T05:56:07.293Z,80
2016-05-06T05:57:07.124Z,80
2016-05-06T05:58:07.237Z,80
2016-05-06T05:59:07.083Z,80
2016-05-06T06:00:07.070Z,80
2016-05-06T06:01:07.057Z,85
2016-05-06T06:02:07.044Z,85
2016-05-06T06:03:06.875Z,85
2016-05-06T06:04:06.862Z,85
2016-05-06T06:05:07.005Z,85
2016-05-06T06:06:06.977Z,85
2016-05-06T06:07:06.823Z,85
2016-05-06T06:08:06.998Z,85
2016-05-06T06:09:06.953Z,85
2016-05-06T06:10:06.925Z,85
2016-05-06T06:11:07.599Z,85
2016-05-06T06:12:06.758Z,90
2016-05-06T06:13:06.902Z,90
2016-05-06T06:14:06.874Z,90
2016-05-06T06:15:06.720Z,90
2016-05-06T06:16:06.863Z,90
2016-05-06T06:17:06.834Z,90
2016-05-06T06:18:06.838Z,90
2016-05-06T06:19:06.824Z,90
2016-05-06T06:20:06.655Z,95
2016-05-06T06:21:06.783Z,95
2016-05-06T06:22:06.785Z,95
2016-05-06T06:23:06.616Z,95
2016-05-06T06:24:06.759Z,95
2016-05-06T06:25:06.591Z,95
2016-05-06T06:26:06.781Z,95
2016-05-06T06:27:06.721Z,95
2016-05-06T06:28:06.395Z,95
2016-05-06T06:29:06.523Z,95
2016-05-06T06:30:06.525Z,95
2016-05-06T06:31:06.685Z,95
2016-05-06T06:32:06.500Z,95
2016-05-06T06:33:06.814Z,95
2016-05-06T06:34:06.334Z,95
2016-05-06T06:35:06.492Z,95
2016-05-06T06:36:06.603Z,100
2016-05-06T06:37:06.436Z,100
2016-05-06T06:38:06.594Z,100
2016-05-06T06:39:06.566Z,100
2016-05-06T06:40:06.553Z,100
2016-05-06T06:41:06.852Z,100
2016-05-06T06:42:06.527Z,100
2016-05-06T06:43:06.372Z,100
2016-05-06T06:44:06.360Z,100
2016-05-06T06:45:06.488Z,100
2016-05-06T06:46:06.491Z,100
2016-05-06T06:47:06.478Z,105
2016-05-06T06:48:06.293Z,100
2016-05-06T06:49:06.468Z,100
2016-05-06T06:50:06.438Z,100
2016-05-06T06:51:06.441Z,105
2016-05-06T06:52:06.257Z,105
2016-05-06T06:53:06.104Z,105
2016-05-06T06:54:06.387Z,110
2016-05-06T06:55:06.218Z,110
2016-05-06T06:56:06.548Z,110
2016-05-06T06:57:06.364Z,110
2016-05-06T06:58:06.335Z,110
2016-05-06T06:59:06.322Z,110
2016-05-06T07:00:06.326Z,110
2016-05-06T07:01:06.328Z,110
2016-05-06T07:02:06.284Z,110
2016-05-06T07:03:06.177Z,115
2016-05-06T07:04:06.273Z,115
2016-05-06T07:05:06.275Z,115
2016-05-06T07:06:06.247Z,115
2016-05-06T07:07:06.234Z,115
2016-05-06T07:08:06.237Z,115
2016-05-06T07:09:06.239Z,115
2016-05-06T07:10:06.275Z,115
2016-05-06T07:11:06.823Z,115
2016-05-06T07:12:06.029Z,115
2016-05-06T07:13:06.219Z,120
2016-05-06T07:14:05.831Z,120
2016-05-06T07:15:06.162Z,120
2016-05-06T07:16:05.977Z,120
2016-05-06T07:17:06.136Z,120
2016-05-06T07:18:06.108Z,120
2016-05-06T07:19:05.970Z,120
2016-05-06T07:20:05.941Z,120
2016-05-06T07:21:06.085Z,120
2016-05-06T07:22:06.071Z,125
2016-05-06T07:23:06.079Z,125
2016-05-06T07:24:05.926Z,125
2016-05-06T07:25:06.037Z,125
2016-05-06T07:26:06.571Z,125
2016-05-06T07:27:05.856Z,130
2016-05-06T07:28:05.999Z,130
2016-05-06T07:29:05.986Z,130
2016-05-06T07:30:05.989Z,130
2016-05-06T07:31:05.976Z,135
2016-05-06T07:32:05.963Z,135
2016-05-06T07:33:05.966Z,140
2016-05-06T07:34:05.797Z,140
2016-05-06T07:35:05.939Z,140
2016-05-06T07:36:05.770Z,140
2016-05-06T07:37:05.789Z,140
2016-05-06T07:38:05.885Z,145
2016-05-06T07:39:05.888Z,145
2016-05-06T07:40:05.891Z,145
2016-05-06T07:41:06.816Z,145
2016-05-06T07:42:05.849Z,145
2016-05-06T07:43:05.836Z,145
2016-05-06T07:44:05.839Z,145
2016-05-06T07:45:05.826Z,145
2016-05-06T07:46:05.657Z,145
2016-05-06T07:47:05.644Z,150
2016-05-06T07:48:05.787Z,150
2016-05-06T07:49:05.666Z,150
2016-05-06T07:50:05.777Z,150
2016-05-06T07:51:05.435Z,150
2016-05-06T07:52:05.751Z,155
2016-05-06T07:53:05.269Z,155
2016-05-06T07:54:05.725Z,155
2016-05-06T07:55:05.556Z,155
2016-05-06T07:56:06.606Z,155
2016-05-06T07:57:05.702Z,155
2016-05-06T07:58:05.532Z,160
2016-05-06T07:59:05.536Z,160
2016-05-06T08:00:05.663Z,160
2016-05-06T08:01:05.353Z,165
2016-05-06T08:02:05.637Z,165
2016-05-06T08:03:05.640Z,165
2016-05-06T08:04:05.627Z,165
2016-05-06T08:05:05.473Z,165
2016-05-06T08:06:05.601Z,170
2016-05-06T08:07:05.448Z,170
2016-05-06T08:08:05.606Z,175
2016-05-06T08:09:05.437Z,795
2016-05-06T08:10:05.425Z,1485
2016-05-06T08:11:05.505Z,1490
2016-05-06T08:12:06.008Z,1435
2016-05-06T08:13:05.541Z,1400
2016-05-06T08:14:05.545Z,1275
2016-05-06T08:15:05.547Z,1130
2016-05-06T08:16:05.535Z,1080
2016-05-06T08:17:05.521Z,1090
2016-05-06T08:18:05.524Z,1150
2016-05-06T08:19:05.371Z,1180
2016-05-06T08:20:05.529Z,1115
2016-05-06T08:21:05.360Z,1035
2016-05-06T08:22:05.519Z,1005
2016-05-06T08:23:05.366Z,1055
2016-05-06T08:24:05.556Z,1145
2016-05-06T08:25:05.480Z,1170
2016-05-06T08:26:06.905Z,1265
2016-05-06T08:27:05.345Z,1355
2016-05-06T08:28:05.348Z,1415
2016-05-06T08:29:05.523Z,1505
2016-05-06T08:30:05.400Z,1480
2016-05-06T08:31:05.496Z,1415
2016-05-06T08:32:05.343Z,1400
2016-05-06T08:33:05.393Z,1415
2016-05-06T08:34:05.504Z,1495
2016-05-06T08:35:05.179Z,1630
2016-05-06T08:36:05.479Z,1785
2016-05-06T08:37:05.341Z,1890
2016-05-06T08:38:05.515Z,1880
2016-05-06T08:39:05.486Z,1800
2016-05-06T08:40:05.475Z,1800
2016-05-06T08:41:05.367Z,1845
2016-05-06T08:42:05.495Z,1860
2016-05-06T08:43:05.325Z,1825
2016-05-06T08:44:05.516Z,1780
2016-05-06T08:45:05.347Z,1805
2016-05-06T08:46:05.333Z,1825
2016-05-06T08:47:05.336Z,1365
2016-05-06T08:48:05.496Z,1510
2016-05-06T08:49:05.513Z,1615
2016-05-06T08:50:05.376Z,990
2016-05-06T08:51:05.550Z,865
2016-05-06T08:52:05.490Z,1160
2016-05-06T08:53:05.510Z,1360
2016-05-06T08:54:05.543Z,705
2016-05-06T08:55:05.499Z,855
2016-05-06T08:56:05.892Z,1130
2016-05-06T08:57:05.582Z,1595
2016-05-06T08:58:05.491Z,1665
2016-05-06T08:59:05.526Z,1475
2016-05-06T09:00:05.496Z,1385
2016-05-06T09:01:05.499Z,1180
2016-05-06T09:02:05.517Z,795
2016-05-06T09:03:05.505Z,660
2016-05-06T09:04:05.507Z,550
2016-05-06T09:05:05.401Z,550
2016-05-06T09:06:05.497Z,415
2016-05-06T09:07:05.359Z,895
2016-05-06T09:08:05.502Z,1250
2016-05-06T09:09:05.520Z,985
2016-05-06T09:10:05.492Z,830
2016-05-06T09:11:05.651Z,760
2016-05-06T09:12:05.498Z,760
2016-05-06T09:13:05.500Z,665
2016-05-06T09:14:05.519Z,625
2016-05-06T09:15:05.505Z,570
2016-05-06T09:16:05.352Z,560
2016-05-06T09:17:05.511Z,705
2016-05-06T09:18:05.498Z,500
2016-05-06T09:19:05.344Z,725
2016-05-06T09:20:05.503Z,505
2016-05-06T09:21:05.349Z,1420
2016-05-06T09:22:05.509Z,1265
2016-05-06T09:23:05.511Z,1300
2016-05-06T09:24:05.513Z,1260
2016-05-06T09:25:05.502Z,1280
2016-05-06T09:26:05.817Z,1355
2016-05-06T09:27:05.507Z,1075
2016-05-06T09:28:05.494Z,705
2016-05-06T09:29:05.184Z,640
2016-05-06T09:30:05.484Z,575
2016-05-06T09:31:05.486Z,630
2016-05-06T09:32:05.176Z,805
2016-05-06T09:33:05.320Z,1370
2016-05-06T09:34:05.479Z,1490
2016-05-06T09:35:05.498Z,705
2016-05-06T09:36:05.484Z,555
2016-05-06T09:37:05.487Z,450
2016-05-06T09:38:05.490Z,830
2016-05-06T09:39:05.336Z,1070
2016-05-06T09:40:05.323Z,1265
2016-05-06T09:41:05.623Z,830
2016-05-06T09:42:05.328Z,635
2016-05-06T09:43:05.472Z,465
2016-05-06T09:44:05.897Z,580
2016-05-06T09:45:05.868Z,635
2016-05-06T09:46:05.464Z,465
2016-05-06T09:47:05.483Z,400
2016-05-06T09:48:05.470Z,535
2016-05-06T09:49:05.456Z,725
2016-05-06T09:50:05.318Z,1385
2016-05-06T09:51:05.306Z,1785
2016-05-06T09:52:05.464Z,1935
2016-05-06T09:53:05.452Z,1900
2016-05-06T09:54:05.314Z,620
2016-05-06T09:55:05.316Z,400
2016-05-06T09:56:05.475Z,350
2016-05-06T09:57:05.307Z,610
2016-05-06T09:58:05.449Z,420
2016-05-06T09:59:05.452Z,360
2016-05-06T10:00:05.454Z,395
2016-05-06T10:01:05.302Z,470
2016-05-06T10:02:05.288Z,1245
2016-05-06T10:03:05.134Z,1880
2016-05-06T10:04:05.451Z,1915
2016-05-06T10:05:05.453Z,1980
2016-05-06T10:06:05.455Z,2095
2016-05-06T10:07:05.459Z,2145
2016-05-06T10:08:05.148Z,2185
2016-05-06T10:09:05.432Z,2165
2016-05-06T10:10:05.295Z,2085
2016-05-06T10:11:06.219Z,2080
2016-05-06T10:12:05.315Z,2075
2016-05-06T10:13:05.443Z,2050
2016-05-06T10:14:05.446Z,2025
2016-05-06T10:15:05.448Z,1720
2016-05-06T10:16:05.451Z,1895
2016-05-06T10:17:05.297Z,2040
2016-05-06T10:18:05.456Z,1975
2016-05-06T10:19:05.459Z,1895
2016-05-06T10:20:05.461Z,1890
2016-05-06T10:21:05.465Z,1950
2016-05-06T10:22:05.467Z,2065
2016-05-06T10:23:05.486Z,2125
2016-05-06T10:24:05.316Z,2100
2016-05-06T10:25:05.490Z,2050
2016-05-06T10:26:05.338Z,2010
2016-05-06T10:27:05.340Z,2050
2016-05-06T10:28:05.343Z,2080
2016-05-06T10:29:05.502Z,2115
2016-05-06T10:30:05.504Z,2095
2016-05-06T10:31:05.351Z,2115
2016-05-06T10:32:05.369Z,2125
2016-05-06T10:33:05.716Z,2100
2016-05-06T10:34:05.359Z,2015
2016-05-06T10:35:05.518Z,1940
2016-05-06T10:36:05.364Z,1975
2016-05-06T10:37:05.210Z,2005
2016-05-06T10:38:05.370Z,2075
2016-05-06T10:39:05.372Z,2105
2016-05-06T10:40:05.531Z,2080
2016-05-06T10:41:08.081Z,2030
2016-05-06T10:42:05.803Z,1870
2016-05-06T10:43:05.430Z,1520
2016-05-06T10:44:05.558Z,1470
2016-05-06T10:45:05.561Z,1695
2016-05-06T10:46:05.578Z,1870
2016-05-06T10:47:05.097Z,2045
2016-05-06T10:48:05.553Z,2150
2016-05-06T10:49:05.571Z,2200
2016-05-06T10:50:05.418Z,2185
2016-05-06T10:51:05.608Z,2200
2016-05-06T10:52:05.594Z,2150
2016-05-06T10:53:05.269Z,2165
2016-05-06T10:54:05.616Z,2210
2016-05-06T10:55:05.291Z,2235
2016-05-06T10:56:05.997Z,2125
2016-05-06T10:57:06.311Z,2060
2016-05-06T10:58:05.611Z,2025
2016-05-06T10:59:05.316Z,1995
2016-05-06T11:00:05.492Z,1990
2016-05-06T11:01:05.478Z,2020
2016-05-06T11:02:05.638Z,1990
2016-05-06T11:03:05.484Z,1955
2016-05-06T11:04:05.643Z,1955
2016-05-06T11:05:05.645Z,2010
2016-05-06T11:06:05.632Z,2040
2016-05-06T11:07:05.510Z,2015
2016-05-06T11:08:05.669Z,2040
2016-05-06T11:09:05.656Z,2070
2016-05-06T11:10:05.674Z,1930
2016-05-06T11:11:05.677Z,1935
2016-05-06T11:12:05.430Z,1920
2016-05-06T11:13:05.526Z,1935
2016-05-06T11:14:05.529Z,2050
2016-05-06T11:15:05.720Z,2170
2016-05-06T11:16:05.550Z,2220
2016-05-06T11:17:05.709Z,2200
2016-05-06T11:18:05.696Z,2180
2016-05-06T11:19:05.402Z,2120
2016-05-06T11:20:05.576Z,2045
2016-05-06T11:21:05.579Z,2060
2016-05-06T11:22:05.567Z,2030
2016-05-06T11:23:05.897Z,2060
2016-05-06T11:24:05.743Z,2120
2016-05-06T11:25:05.747Z,2135
2016-05-06T11:26:05.655Z,2085
2016-05-06T11:27:06.017Z,2095
2016-05-06T11:28:05.755Z,2065
2016-05-06T11:29:05.772Z,1970
2016-05-06T11:30:05.775Z,1850
2016-05-06T11:31:05.653Z,1760
2016-05-06T11:32:05.655Z,1665
2016-05-06T11:33:05.783Z,1615
2016-05-06T11:34:05.786Z,1700
2016-05-06T11:35:05.820Z,1830
2016-05-06T11:36:05.652Z,1890
2016-05-06T11:37:05.810Z,1965
2016-05-06T11:38:05.796Z,1890
2016-05-06T11:39:05.816Z,1740
2016-05-06T11:40:05.818Z,1875
2016-05-06T11:41:05.665Z,1830
2016-05-06T11:42:05.839Z,1780
2016-05-06T11:43:06.513Z,1635
2016-05-06T11:44:06.282Z,1615
2016-05-06T11:45:05.831Z,1520
2016-05-06T11:46:05.709Z,1400
2016-05-06T11:47:05.868Z,1385
2016-05-06T11:48:05.855Z,1505
2016-05-06T11:49:05.858Z,1720
2016-05-06T11:50:05.876Z,1930
2016-05-06T11:51:07.551Z,2125
2016-05-06T11:52:05.881Z,2125
2016-05-06T11:53:05.869Z,2025
2016-05-06T11:54:05.903Z,1995
2016-05-06T11:55:05.889Z,2060
2016-05-06T11:56:05.892Z,2030
2016-05-06T11:57:05.879Z,2065
2016-05-06T11:58:05.914Z,2050
2016-05-06T11:59:06.666Z,2090
2016-05-06T12:00:05.918Z,2025
2016-05-06T12:01:05.766Z,2130
2016-05-06T12:02:05.924Z,2165
2016-05-06T12:03:05.942Z,2195
2016-05-06T12:04:05.788Z,2180
2016-05-06T12:05:05.917Z,2150
2016-05-06T12:06:05.919Z,2110
2016-05-06T12:07:05.937Z,2000
2016-05-06T12:08:05.956Z,2080
2016-05-06T12:09:05.818Z,2180
2016-05-06T12:10:05.961Z,2175
2016-05-06T12:11:05.651Z,2140
2016-05-06T12:12:07.716Z,2120
2016-05-06T12:13:05.954Z,2125
2016-05-06T12:14:05.987Z,2130
2016-05-06T12:15:06.021Z,2140
2016-05-06T12:16:05.976Z,2125
2016-05-06T12:17:05.996Z,2115
2016-05-06T12:18:05.857Z,2085
2016-05-06T12:19:06.079Z,2075
2016-05-06T12:20:06.004Z,2105
2016-05-06T12:21:06.037Z,2150
2016-05-06T12:22:06.056Z,2150
2016-05-06T12:23:06.028Z,2175
2016-05-06T12:24:06.014Z,2200
2016-05-06T12:25:06.064Z,2180
2016-05-06T12:26:05.879Z,2090
2016-05-06T12:27:06.070Z,1945
2016-05-06T12:28:06.275Z,1740
2016-05-06T12:29:05.902Z,1655
2016-05-06T12:30:05.906Z,1685
2016-05-06T12:31:06.080Z,1805
2016-05-06T12:32:06.067Z,1950
2016-05-06T12:33:06.273Z,2070
2016-05-06T12:34:06.072Z,2105
2016-05-06T12:35:05.778Z,2110
2016-05-06T12:36:06.093Z,2090
2016-05-06T12:37:06.097Z,2080
2016-05-06T12:38:06.115Z,2020
2016-05-06T12:39:06.132Z,1990
2016-05-06T12:40:05.964Z,2005
2016-05-06T12:41:06.076Z,2030
2016-05-06T12:42:05.984Z,2065
2016-05-06T12:43:06.144Z,2115
2016-05-06T12:44:05.834Z,2115
2016-05-06T12:45:06.180Z,2110
2016-05-06T12:46:06.182Z,2105
2016-05-06T12:47:06.170Z,2095
2016-05-06T12:48:06.173Z,2110
2016-05-06T12:49:06.176Z,2115
2016-05-06T12:50:06.163Z,2060
2016-05-06T12:51:06.181Z,2020
2016-05-06T12:52:06.168Z,2015
2016-05-06T12:53:06.217Z,2005
2016-05-06T12:54:06.189Z,2010
2016-05-06T12:55:16.707Z,1945
2016-05-06T12:56:06.053Z,1900
2016-05-06T12:57:06.416Z,1905
2016-05-06T12:58:06.215Z,1935
2016-05-06T12:59:06.218Z,1975
2016-05-06T13:00:06.236Z,1970
2016-05-06T13:01:06.223Z,1995
2016-05-06T13:02:06.226Z,2000
2016-05-06T13:03:06.275Z,2000
2016-05-06T13:04:06.247Z,1995
2016-05-06T13:05:06.266Z,2000
2016-05-06T13:06:06.096Z,2000
2016-05-06T13:07:06.146Z,2020
2016-05-06T13:08:09.164Z,2020
2016-05-06T13:09:06.151Z,2010
2016-05-06T13:10:06.138Z,1950
2016-05-06T13:11:06.110Z,1860
2016-05-06T13:12:06.487Z,1775
2016-05-06T13:13:06.146Z,1705
2016-05-06T13:14:06.305Z,1615
2016-05-06T13:15:06.308Z,1520
2016-05-06T13:16:06.310Z,1520
2016-05-06T13:17:06.001Z,1695
2016-05-06T13:18:06.332Z,1870
2016-05-06T13:19:06.319Z,2000
2016-05-06T13:20:06.353Z,2045
2016-05-06T13:21:06.199Z,1995
2016-05-06T13:22:06.030Z,1960
2016-05-06T13:23:06.237Z,1895
2016-05-06T13:24:06.348Z,1835
2016-05-06T13:25:06.194Z,1790
2016-05-06T13:26:07.087Z,1770
2016-05-06T13:27:06.387Z,1785
2016-05-06T13:28:05.921Z,1835
2016-05-06T13:29:06.377Z,1835
2016-05-06T13:30:06.223Z,1855
2016-05-06T13:31:06.398Z,1865
2016-05-06T13:32:06.073Z,1860
2016-05-06T13:33:06.247Z,1825
2016-05-06T13:34:06.250Z,1860
2016-05-06T13:35:06.096Z,1855
2016-05-06T13:36:06.256Z,1905
2016-05-06T13:37:06.413Z,1885
2016-05-06T13:38:06.104Z,1615
2016-05-06T13:39:06.419Z,1050
2016-05-06T13:40:06.453Z,1335
2016-05-06T13:41:06.440Z,1400
2016-05-06T13:42:06.162Z,1500
2016-05-06T13:43:06.446Z,1470
2016-05-06T13:44:06.480Z,1445
2016-05-06T13:45:06.451Z,1610
2016-05-06T13:46:06.298Z,1520
2016-05-06T13:47:06.487Z,1475
2016-05-06T13:48:06.474Z,1570
2016-05-06T13:49:06.321Z,1525
2016-05-06T13:50:06.479Z,1555
2016-05-06T13:51:06.326Z,1590
2016-05-06T13:52:06.485Z,1490
2016-05-06T13:53:06.348Z,1320
2016-05-06T13:54:06.507Z,1290
2016-05-06T13:55:06.493Z,1270
2016-05-06T13:56:08.825Z,1395
2016-05-06T13:57:06.843Z,1515